createdAt,value
2022-12-29T00:02:13.986Z,30.00
2022-12-29T00:04:46.247Z,30.30
2022-12-29T00:07:18.461Z,30.10
2022-12-29T00:09:50.732Z,31.20
2022-12-29T00:12:23.019Z,32.30
2022-12-29T00:15:12.582Z,29.20
2022-12-29T00:17:44.830Z,30.00
2022-12-29T00:20:34.455Z,34.50
2022-12-29T00:23:24.214Z,33.60
2022-12-29T00:26:13.882Z,31.00
2022-12-29T00:29:03.525Z,32.50
2022-12-29T00:31:53.097Z,35.50
2022-12-29T00:34:42.993Z,34.30
2022-12-29T00:37:15.532Z,33.60
2022-12-29T00:40:05.240Z,32.50
2022-12-29T00:42:55.039Z,35.30
2022-12-29T00:45:27.187Z,32.30
2022-12-29T00:47:59.390Z,33.70
2022-12-29T00:50:31.862Z,34.40
2022-12-29T00:53:04.075Z,32.00
2022-12-29T00:55:40.299Z,35.40
2022-12-29T00:58:12.641Z,35.20
2022-12-29T01:00:44.947Z,34.60
2022-12-29T01:03:17.425Z,34.00
2022-12-29T01:05:50.481Z,38.90
2022-12-29T01:08:22.666Z,34.30
2022-12-29T01:11:04.606Z,32.20
2022-12-29T01:13:38.295Z,35.30
2022-12-29T01:16:11.429Z,34.00
2022-12-29T01:18:43.620Z,36.30
2022-12-29T01:21:15.836Z,34.70
2022-12-29T01:23:48.040Z,34.10
2022-12-29T01:26:20.995Z,38.90
2022-12-29T01:28:53.260Z,37.10
2022-12-29T01:31:25.556Z,38.50
2022-12-29T01:33:57.896Z,37.30
2022-12-29T01:36:31.125Z,40.70
2022-12-29T01:39:03.307Z,35.90
2022-12-29T01:41:35.533Z,37.10
2022-12-29T01:44:38.345Z,41.80
2022-12-29T01:47:12.153Z,42.20
2022-12-29T01:49:44.362Z,38.40
2022-12-29T01:52:16.771Z,40.00
2022-12-29T01:54:54.867Z,41.90
2022-12-29T01:57:32.275Z,43.10
2022-12-29T02:00:10.239Z,39.60
2022-12-29T02:02:44.758Z,40.10
2022-12-29T02:05:23.810Z,40.50
2022-12-29T02:07:57.424Z,39.90
2022-12-29T02:10:32.801Z,44.00
2022-12-29T02:13:06.326Z,43.10
2022-12-29T02:15:59.480Z,41.30
2022-12-29T02:18:40.381Z,41.30
2022-12-29T02:21:47.839Z,42.50
2022-12-29T02:24:48.926Z,37.90
2022-12-29T02:27:56.845Z,39.50
2022-12-29T02:30:42.915Z,41.10
2022-12-29T02:33:25.728Z,40.80
2022-12-29T02:36:08.604Z,41.10
2022-12-29T02:38:54.767Z,42.90
2022-12-29T02:41:33.539Z,37.20
2022-12-29T02:44:14.800Z,40.40
2022-12-29T02:46:51.634Z,38.30
2022-12-29T02:49:34.575Z,40.40
2022-12-29T02:52:12.354Z,41.90
2022-12-29T02:54:44.992Z,41.80
2022-12-29T02:57:32.896Z,40.60
2022-12-29T03:00:10.698Z,43.90
2022-12-29T03:03:13.799Z,38.60
2022-12-29T03:06:19.439Z,40.20
2022-12-29T03:08:57.615Z,39.60
2022-12-29T03:12:01.723Z,42.40
2022-12-29T03:14:57.739Z,42.00
2022-12-29T03:17:38.852Z,47.40
2022-12-29T03:20:16.138Z,43.70
2022-12-29T03:22:53.935Z,41.20
2022-12-29T03:25:31.130Z,45.20
2022-12-29T03:28:07.567Z,39.40
2022-12-29T03:30:42.321Z,40.50
2022-12-29T03:33:18.938Z,38.50
2022-12-29T03:35:54.843Z,41.30
2022-12-29T03:38:32.688Z,39.00
2022-12-29T03:41:10.650Z,38.30
2022-12-29T03:43:43.316Z,36.10
2022-12-29T03:46:15.634Z,33.80
2022-12-29T03:48:48.095Z,37.40
2022-12-29T03:51:20.330Z,33.20
2022-12-29T03:53:52.674Z,32.70
2022-12-29T03:56:25.008Z,34.40
2022-12-29T03:58:57.395Z,35.70
2022-12-29T04:01:29.806Z,34.10
2022-12-29T04:04:02.099Z,38.20
2022-12-29T04:06:34.112Z,35.90
2022-12-29T04:09:06.378Z,36.30
2022-12-29T04:11:39.769Z,34.30
2022-12-29T04:14:11.962Z,39.10
2022-12-29T04:16:44.523Z,36.10
2022-12-29T04:19:16.828Z,35.10
2022-12-29T04:21:50.850Z,35.70
2022-12-29T04:24:23.219Z,35.10
2022-12-29T04:26:55.406Z,35.30
2022-12-29T04:29:27.810Z,34.40
2022-12-29T04:32:00.004Z,36.10
2022-12-29T04:34:32.239Z,34.60
2022-12-29T04:37:04.396Z,36.20
2022-12-29T04:39:36.791Z,34.30
2022-12-29T04:42:09.078Z,31.60
2022-12-29T04:44:45.022Z,31.90
2022-12-29T04:47:17.540Z,37.10
2022-12-29T04:49:50.972Z,34.40
2022-12-29T04:52:23.243Z,35.00
2022-12-29T04:54:55.515Z,37.50
2022-12-29T04:57:27.929Z,35.50
2022-12-29T05:00:00.179Z,36.40
2022-12-29T05:02:32.723Z,34.70
2022-12-29T05:05:05.470Z,33.30
2022-12-29T05:07:37.897Z,34.70
2022-12-29T05:10:11.454Z,35.70
2022-12-29T05:12:43.757Z,33.00
2022-12-29T05:15:16.041Z,35.60
2022-12-29T05:17:48.292Z,34.20
2022-12-29T05:20:20.626Z,35.80
2022-12-29T05:22:52.903Z,36.30
2022-12-29T05:25:25.104Z,34.70
2022-12-29T05:27:57.385Z,32.50
2022-12-29T05:30:29.554Z,37.80
2022-12-29T05:33:01.786Z,36.10
2022-12-29T05:35:34.009Z,35.70
2022-12-29T05:38:06.415Z,32.00
2022-12-29T05:40:38.735Z,33.50
2022-12-29T05:43:10.941Z,33.90
2022-12-29T05:45:43.133Z,35.50
2022-12-29T05:48:15.379Z,31.60
2022-12-29T05:50:51.456Z,33.70
2022-12-29T05:53:23.642Z,33.70
2022-12-29T05:55:55.943Z,36.90
2022-12-29T05:58:28.141Z,34.60
2022-12-29T06:01:00.391Z,34.30
2022-12-29T06:03:32.724Z,36.90
2022-12-29T06:06:05.362Z,36.40
2022-12-29T06:08:37.606Z,35.10
2022-12-29T06:11:09.931Z,35.80
2022-12-29T06:13:42.223Z,35.30
2022-12-29T06:16:14.596Z,34.50
2022-12-29T06:18:47.893Z,37.80
2022-12-29T06:21:20.115Z,36.90
2022-12-29T06:23:52.447Z,37.10
2022-12-29T06:26:24.696Z,38.30
2022-12-29T06:28:56.909Z,34.30
2022-12-29T06:31:29.139Z,35.50
2022-12-29T06:34:07.911Z,34.50
2022-12-29T06:36:41.037Z,35.30
2022-12-29T06:39:14.191Z,39.10
2022-12-29T06:41:46.527Z,37.40
2022-12-29T06:44:18.739Z,37.20
2022-12-29T06:46:51.011Z,35.30
2022-12-29T06:49:23.312Z,35.80
2022-12-29T06:51:55.568Z,36.70
2022-12-29T06:54:27.862Z,37.60
2022-12-29T06:57:00.425Z,37.90
2022-12-29T06:59:32.774Z,38.20
2022-12-29T07:02:05.219Z,34.70
2022-12-29T07:04:37.664Z,35.40
2022-12-29T07:07:09.971Z,35.30
2022-12-29T07:09:42.557Z,34.10
2022-12-29T07:12:14.863Z,32.90
2022-12-29T07:14:47.211Z,34.00
2022-12-29T07:17:19.517Z,34.10
2022-12-29T07:19:51.700Z,33.60
2022-12-29T07:22:23.973Z,36.50
2022-12-29T07:24:56.257Z,36.80
2022-12-29T07:27:28.499Z,52.80
2022-12-29T07:30:00.728Z,110.70
2022-12-29T07:32:36.292Z,66.60
2022-12-29T07:35:09.828Z,24.60
2022-12-29T07:37:42.059Z,31.40
2022-12-29T07:40:15.085Z,28.50
2022-12-29T07:42:47.306Z,29.30
2022-12-29T07:45:19.736Z,25.70
2022-12-29T07:47:54.335Z,30.00
2022-12-29T07:50:26.713Z,27.30
2022-12-29T07:52:58.998Z,28.60
2022-12-29T07:55:31.465Z,29.50
2022-12-29T07:58:03.884Z,27.40
2022-12-29T08:00:36.133Z,24.50
2022-12-29T08:03:08.583Z,24.40
2022-12-29T08:05:40.866Z,21.90
2022-12-29T08:08:13.251Z,26.10
2022-12-29T08:10:45.689Z,26.10
2022-12-29T08:13:18.624Z,25.20
2022-12-29T08:15:50.908Z,37.50
2022-12-29T08:18:23.147Z,52.00
2022-12-29T08:20:56.259Z,29.90
2022-12-29T08:23:28.586Z,18.40
2022-12-29T08:26:03.302Z,20.10
2022-12-29T08:28:35.711Z,18.70
2022-12-29T08:31:08.141Z,19.80
2022-12-29T08:33:40.491Z,17.30
2022-12-29T08:36:13.578Z,17.30
2022-12-29T08:38:45.782Z,17.30
2022-12-29T08:41:18.264Z,13.70
2022-12-29T08:43:51.935Z,17.70
2022-12-29T08:46:24.316Z,14.20
2022-12-29T08:48:56.803Z,16.00
2022-12-29T08:51:28.986Z,16.00
2022-12-29T08:54:01.927Z,14.30
2022-12-29T08:56:34.547Z,16.70
2022-12-29T08:59:06.734Z,16.60
2022-12-29T09:01:41.818Z,17.20
2022-12-29T09:04:16.462Z,16.20
2022-12-29T09:06:49.515Z,15.70
2022-12-29T09:09:21.817Z,14.30
2022-12-29T09:11:54.455Z,14.20
2022-12-29T09:14:26.772Z,12.00
2022-12-29T09:17:16.663Z,11.90
2022-12-29T09:19:49.045Z,9.90
2022-12-29T09:22:21.578Z,9.30
2022-12-29T09:24:53.891Z,10.10
2022-12-29T09:27:26.147Z,8.90
2022-12-29T09:29:58.947Z,11.00
2022-12-29T09:32:33.841Z,8.10
2022-12-29T09:35:07.668Z,7.10
2022-12-29T09:37:39.900Z,7.70
2022-12-29T09:40:26.322Z,13.90
2022-12-29T09:43:24.046Z,9.50
2022-12-29T09:46:03.422Z,8.60
2022-12-29T09:48:42.065Z,10.40
2022-12-29T09:51:18.017Z,8.00
2022-12-29T09:56:26.937Z,9.50
2022-12-29T09:59:04.711Z,9.70
2022-12-29T10:01:43.950Z,7.90
2022-12-29T10:04:16.445Z,8.10
2022-12-29T10:07:28.167Z,8.40
2022-12-29T10:09:54.649Z,11.40
2022-12-29T10:12:34.930Z,6.80
2022-12-29T10:15:20.030Z,7.40
2022-12-29T10:18:00.441Z,7.10
2022-12-29T10:20:40.569Z,6.30
2022-12-29T10:23:27.299Z,6.00
2022-12-29T10:26:00.890Z,7.20
2022-12-29T10:28:41.097Z,7.60
2022-12-29T10:31:21.101Z,8.80
2022-12-29T10:33:59.833Z,9.50
2022-12-29T10:36:37.022Z,7.60
2022-12-29T10:39:22.634Z,8.00
2022-12-29T10:41:59.603Z,7.30
2022-12-29T10:44:35.791Z,7.70
2022-12-29T10:47:14.677Z,9.00
2022-12-29T10:49:49.819Z,11.00
2022-12-29T10:52:24.559Z,8.80
2022-12-29T10:55:03.511Z,8.40
2022-12-29T10:57:38.946Z,10.00
2022-12-29T11:00:17.765Z,7.80
2022-12-29T11:03:10.231Z,6.80
2022-12-29T11:05:48.569Z,8.30
2022-12-29T11:08:24.786Z,7.90
2022-12-29T11:11:04.287Z,8.70
2022-12-29T11:13:39.390Z,7.90
2022-12-29T11:16:15.433Z,11.60
2022-12-29T11:18:50.280Z,8.80
2022-12-29T11:21:33.805Z,7.90
2022-12-29T11:24:08.102Z,6.40
2022-12-29T11:26:42.360Z,7.50
2022-12-29T11:29:32.217Z,9.20
2022-12-29T11:32:15.331Z,7.60
2022-12-29T11:34:47.728Z,8.10
2022-12-29T11:37:25.979Z,6.70
2022-12-29T11:40:02.328Z,7.50
2022-12-29T11:42:40.542Z,8.20
2022-12-29T11:45:20.621Z,10.20
2022-12-29T11:47:55.325Z,8.40
2022-12-29T11:50:31.547Z,8.40
2022-12-29T11:53:08.511Z,9.90
2022-12-29T11:55:40.831Z,8.90
2022-12-29T11:58:19.814Z,8.60
2022-12-29T12:00:53.487Z,8.90
2022-12-29T12:03:30.723Z,9.00
2022-12-29T12:06:05.201Z,7.90
2022-12-29T12:08:41.136Z,8.30
2022-12-29T12:14:02.104Z,9.00
2022-12-29T12:16:39.569Z,8.50
2022-12-29T12:19:22.758Z,9.60
2022-12-29T12:21:58.427Z,9.80
2022-12-29T12:24:45.345Z,10.30
2022-12-29T12:27:26.617Z,10.10
2022-12-29T12:30:04.125Z,10.90
2022-12-29T12:32:46.830Z,15.20
2022-12-29T12:35:27.196Z,11.60
2022-12-29T12:38:17.788Z,13.00
2022-12-29T12:41:08.045Z,9.80
2022-12-29T12:43:49.688Z,10.60
2022-12-29T12:46:45.570Z,10.00
2022-12-29T12:49:38.146Z,17.00
2022-12-29T12:52:18.902Z,10.00
2022-12-29T12:55:10.270Z,9.00
2022-12-29T12:57:55.000Z,11.80
2022-12-29T13:00:30.140Z,9.50
2022-12-29T13:03:13.574Z,10.30
2022-12-29T13:06:10.226Z,10.40
2022-12-29T13:09:16.997Z,11.20
2022-12-29T13:12:04.121Z,11.10
2022-12-29T13:14:48.869Z,11.60
2022-12-29T13:17:28.921Z,10.30
2022-12-29T13:20:11.438Z,10.40
2022-12-29T13:22:52.607Z,9.10
2022-12-29T13:25:36.121Z,12.20
2022-12-29T13:28:19.279Z,11.80
2022-12-29T13:30:59.996Z,10.00
2022-12-29T13:33:39.595Z,11.70
2022-12-29T13:36:20.299Z,11.90
2022-12-29T13:38:57.248Z,8.30
2022-12-29T13:41:35.968Z,7.60
2022-12-29T13:44:11.679Z,7.60
2022-12-29T13:46:47.911Z,10.60
2022-12-29T13:49:22.949Z,9.80
2022-12-29T13:51:58.940Z,8.90
2022-12-29T13:57:12.709Z,8.70
2022-12-29T13:59:52.633Z,9.10
2022-12-29T14:02:40.381Z,9.10
2022-12-29T14:05:33.665Z,8.50
2022-12-29T14:08:08.267Z,10.50
2022-12-29T14:10:48.859Z,8.40
2022-12-29T14:13:23.571Z,8.60
2022-12-29T14:15:59.612Z,11.30
2022-12-29T14:21:11.280Z,9.10
2022-12-29T14:23:45.645Z,9.20
2022-12-29T14:26:21.070Z,9.70
2022-12-29T14:28:53.633Z,10.10
2022-12-29T14:31:42.340Z,9.90
2022-12-29T14:34:51.823Z,8.60
2022-12-29T14:37:30.179Z,11.30
2022-12-29T14:40:20.686Z,10.00
2022-12-29T14:42:55.113Z,12.30
2022-12-29T14:45:33.884Z,10.60
2022-12-29T14:48:32.397Z,12.90
2022-12-29T14:51:18.588Z,11.10
2022-12-29T14:53:53.344Z,11.90
2022-12-29T14:56:32.303Z,10.80
2022-12-29T14:59:06.273Z,11.20
2022-12-29T15:01:47.655Z,13.70
2022-12-29T15:04:23.601Z,11.80
2022-12-29T15:06:56.616Z,10.60
2022-12-29T15:09:37.472Z,10.90
2022-12-29T15:12:21.300Z,11.80
2022-12-29T15:14:56.279Z,13.00
2022-12-29T15:17:31.080Z,13.20
2022-12-29T15:20:19.189Z,15.10
2022-12-29T15:22:55.274Z,13.60
2022-12-29T15:25:28.483Z,15.40
2022-12-29T15:28:04.718Z,13.30
2022-12-29T15:30:36.933Z,15.30
2022-12-29T15:33:23.190Z,17.40
2022-12-29T15:35:57.214Z,19.60
2022-12-29T15:38:38.546Z,16.00
2022-12-29T15:41:27.249Z,18.20
2022-12-29T15:44:10.551Z,19.90
2022-12-29T15:46:42.829Z,24.30
2022-12-29T15:49:18.375Z,19.20
2022-12-29T15:51:53.874Z,20.90
2022-12-29T15:54:29.679Z,21.10
2022-12-29T15:57:01.987Z,24.50
2022-12-29T15:59:35.966Z,22.30
2022-12-29T16:02:14.036Z,19.50
2022-12-29T16:05:15.946Z,19.50
2022-12-29T16:07:42.188Z,20.10
2022-12-29T16:10:31.554Z,21.80
2022-12-29T16:13:15.022Z,24.10
2022-12-29T16:15:50.493Z,22.80
2022-12-29T16:18:29.858Z,23.00
2022-12-29T16:21:02.514Z,20.40
2022-12-29T16:23:38.877Z,21.90
2022-12-29T16:26:20.471Z,25.80
2022-12-29T16:28:57.265Z,24.60
2022-12-29T16:31:37.820Z,24.40
2022-12-29T16:34:25.504Z,26.80
2022-12-29T16:37:00.567Z,25.60
2022-12-29T16:39:35.924Z,27.30
2022-12-29T16:42:38.473Z,28.60
2022-12-29T16:45:39.381Z,23.90
2022-12-29T16:48:22.320Z,27.70
2022-12-29T16:51:03.024Z,24.70
2022-12-29T16:53:38.031Z,22.10
2022-12-29T16:56:18.190Z,22.50
2022-12-29T16:58:54.714Z,24.50
2022-12-29T17:01:27.167Z,23.20
2022-12-29T17:04:03.645Z,24.90
2022-12-29T17:06:35.948Z,26.20
2022-12-29T17:09:21.223Z,24.70
2022-12-29T17:12:01.570Z,25.80
2022-12-29T17:14:44.523Z,27.70
2022-12-29T17:17:24.168Z,24.60
2022-12-29T17:20:03.064Z,26.70
2022-12-29T17:22:36.962Z,26.80
2022-12-29T17:25:13.457Z,24.10
2022-12-29T17:27:49.473Z,25.80
2022-12-29T17:30:31.159Z,26.60
2022-12-29T17:33:09.031Z,24.10
2022-12-29T17:35:41.318Z,30.70
2022-12-29T17:38:21.285Z,27.40
2022-12-29T17:40:53.806Z,28.70
2022-12-29T17:43:30.091Z,29.50
2022-12-29T17:46:09.228Z,27.60
2022-12-29T17:48:41.690Z,31.10
2022-12-29T17:51:22.691Z,30.40
2022-12-29T17:53:54.890Z,29.30
2022-12-29T17:56:27.159Z,30.40
2022-12-29T17:58:59.841Z,29.50
2022-12-29T18:01:36.211Z,32.90
2022-12-29T18:04:11.816Z,28.10
2022-12-29T18:06:44.441Z,29.70
2022-12-29T18:09:18.481Z,34.20
2022-12-29T18:11:50.668Z,32.80
2022-12-29T18:14:22.996Z,30.90
2022-12-29T18:16:56.076Z,30.20
2022-12-29T18:19:33.961Z,35.80
2022-12-29T18:22:08.040Z,30.70
2022-12-29T18:24:40.272Z,32.70
2022-12-29T18:27:15.907Z,33.30
2022-12-29T18:29:48.657Z,33.10
2022-12-29T18:32:21.411Z,31.70
2022-12-29T18:34:53.761Z,33.20
2022-12-29T18:37:26.197Z,36.80
2022-12-29T18:39:59.534Z,32.50
2022-12-29T18:42:31.767Z,29.90
2022-12-29T18:45:03.941Z,32.70
2022-12-29T18:47:36.169Z,33.60
2022-12-29T18:50:09.231Z,36.10
2022-12-29T18:52:41.398Z,34.80
2022-12-29T18:55:19.880Z,35.00
2022-12-29T18:57:52.544Z,31.20
2022-12-29T19:00:25.467Z,31.50
2022-12-29T19:02:57.837Z,34.70
2022-12-29T19:05:32.728Z,28.80
2022-12-29T19:08:05.392Z,34.60
2022-12-29T19:10:38.033Z,32.90
2022-12-29T19:13:15.776Z,31.70
2022-12-29T19:15:49.969Z,35.90
2022-12-29T19:21:20.106Z,30.50
2022-12-29T19:23:53.266Z,31.50
2022-12-29T19:26:36.272Z,33.90
2022-12-29T19:29:11.818Z,30.30
2022-12-29T19:31:44.121Z,33.60
2022-12-29T19:34:19.623Z,34.90
2022-12-29T19:36:51.999Z,30.00
2022-12-29T19:39:24.292Z,29.80
2022-12-29T19:42:00.517Z,28.20
2022-12-29T19:44:37.671Z,29.20
2022-12-29T19:47:10.063Z,32.50
2022-12-29T19:49:43.473Z,31.30
2022-12-29T19:52:15.765Z,32.40
2022-12-29T19:54:48.040Z,32.90
2022-12-29T19:57:20.439Z,34.40
2022-12-29T19:59:53.054Z,31.60
2022-12-29T20:02:27.835Z,32.10
2022-12-29T20:05:00.322Z,31.50
2022-12-29T20:07:32.697Z,30.00
2022-12-29T20:10:05.405Z,30.60
2022-12-29T20:12:39.044Z,29.90
2022-12-29T20:15:13.018Z,28.60
2022-12-29T20:18:12.362Z,29.60
2022-12-29T20:20:37.793Z,30.30
2022-12-29T20:23:10.071Z,30.40
2022-12-29T20:25:45.702Z,32.90
2022-12-29T20:28:18.860Z,33.90
2022-12-29T20:30:59.099Z,33.10
2022-12-29T20:33:32.953Z,34.30
2022-12-29T20:36:10.415Z,32.40
2022-12-29T20:38:46.363Z,33.90
2022-12-29T20:43:50.079Z,29.40
2022-12-29T20:46:28.043Z,26.00
2022-12-29T20:49:01.129Z,34.20
2022-12-29T20:52:03.977Z,32.60
2022-12-29T20:54:26.360Z,35.00
2022-12-29T20:56:58.923Z,34.80
2022-12-29T20:59:31.259Z,34.60
2022-12-29T21:02:03.492Z,33.00
2022-12-29T21:05:12.875Z,34.00
2022-12-29T21:07:28.328Z,39.70
2022-12-29T21:10:00.532Z,33.60
2022-12-29T21:12:32.819Z,34.50
2022-12-29T21:15:05.609Z,32.00
2022-12-29T21:17:37.955Z,33.10
2022-12-29T21:20:20.167Z,31.80
2022-12-29T21:22:52.770Z,35.30
2022-12-29T21:25:25.331Z,29.00
2022-12-29T21:27:57.513Z,32.30
2022-12-29T21:30:29.816Z,33.50
2022-12-29T21:33:02.895Z,33.70
2022-12-29T21:35:38.321Z,33.90
2022-12-29T21:38:12.131Z,36.10
2022-12-29T21:40:44.374Z,32.90
2022-12-29T21:43:16.581Z,31.80
2022-12-29T21:45:52.337Z,32.30
2022-12-29T21:48:28.957Z,36.80
2022-12-29T21:51:30.078Z,35.20
2022-12-29T21:54:18.429Z,34.30
2022-12-29T21:56:52.586Z,33.50
2022-12-29T21:59:42.245Z,36.20
2022-12-29T22:02:39.279Z,36.00
2022-12-29T22:05:33.251Z,35.00
2022-12-29T22:08:24.043Z,34.80
2022-12-29T22:11:13.728Z,36.00
2022-12-29T22:13:45.973Z,33.80
2022-12-29T22:16:18.451Z,37.70
2022-12-29T22:18:50.889Z,33.70
2022-12-29T22:21:23.233Z,37.40
2022-12-29T22:23:55.481Z,37.10
2022-12-29T22:26:27.707Z,35.50
2022-12-29T22:29:00.153Z,41.50
2022-12-29T22:31:34.103Z,36.20
2022-12-29T22:34:07.480Z,35.80
2022-12-29T22:36:39.713Z,35.90
2022-12-29T22:39:12.307Z,36.20
2022-12-29T22:41:44.830Z,33.70
2022-12-29T22:44:17.129Z,37.10
2022-12-29T22:46:49.416Z,35.30
2022-12-29T22:49:21.658Z,35.80
2022-12-29T22:51:54.152Z,33.80
2022-12-29T22:54:26.507Z,35.10
2022-12-29T22:56:58.851Z,35.20
2022-12-29T22:59:31.425Z,39.50
2022-12-29T23:02:03.853Z,38.90
2022-12-29T23:07:30.061Z,37.30
2022-12-29T23:10:02.331Z,33.90
2022-12-29T23:12:35.067Z,33.30
2022-12-29T23:15:09.126Z,35.80
2022-12-29T23:17:41.386Z,32.10
2022-12-29T23:20:15.127Z,37.40
2022-12-29T23:22:47.455Z,33.70
2022-12-29T23:25:19.947Z,36.50
2022-12-29T23:27:52.160Z,33.20
2022-12-29T23:30:24.544Z,37.40
2022-12-29T23:32:56.758Z,38.90
2022-12-29T23:35:29.080Z,35.70
2022-12-29T23:38:01.423Z,35.30
2022-12-29T23:40:34.492Z,35.70
2022-12-29T23:43:06.835Z,36.80
2022-12-29T23:45:39.955Z,34.00
2022-12-29T23:48:13.351Z,34.80
2022-12-29T23:50:45.801Z,33.20
2022-12-29T23:53:18.093Z,35.50
2022-12-29T23:55:55.801Z,37.00
2022-12-29T23:58:30.194Z,34.70
